Time;durP1;ratioP1;P1;durP2;ratioP2;P2;SDS_P1;SDS_P2;PMS_P1;PMS_P2;Temp;Humidity;BMP_temperature;BMP_pressure;BME280_temperature;BME280_humidity;BME280_pressure;Samples;Min_cycle;Max_cycle;Signal;HPM_P1;HPM_P2
2021/08/08 00:02:13;;;;;;;3.50;1.40;;;;;;;24.77;40.56;93851.41;4984529;28;20050;-77
2021/08/08 00:04:39;;;;;;;2.40;1.60;;;;;;;24.73;41.32;93856.75;4985377;28;20080;-76
2021/08/08 00:07:04;;;;;;;4.18;1.50;;;;;;;24.72;40.92;93857.16;4985012;28;20032;-78
2021/08/08 00:09:30;;;;;;;3.65;1.90;;;;;;;24.21;40.58;93814.69;4986775;28;20509;-76
2021/08/08 00:11:55;;;;;;;5.10;1.75;;;;;;;24.47;41.81;93860.44;4983682;28;20041;-76
2021/08/08 00:14:22;;;;;;;2.33;1.63;;;;;;;24.49;41.02;93857.34;4982961;28;20132;-77
2021/08/08 00:16:47;;;;;;;5.03;1.70;;;;;;;24.53;41.56;93864.34;4984220;28;20056;-76
2021/08/08 00:19:13;;;;;;;2.05;1.30;;;;;;;24.51;41.24;93853.13;4984780;28;20374;-76
2021/08/08 00:21:39;;;;;;;4.70;1.80;;;;;;;24.46;41.71;93858.13;4983843;28;20038;-76
2021/08/08 00:24:05;;;;;;;2.08;1.50;;;;;;;24.53;41.06;93863.59;4982218;28;20417;-78
2021/08/08 00:26:31;;;;;;;2.58;1.42;;;;;;;24.57;40.92;93858.97;4981663;28;20046;-77
2021/08/08 00:28:57;;;;;;;2.15;1.40;;;;;;;24.58;40.47;93863.97;4976123;28;20043;-78
2021/08/08 00:31:24;;;;;;;4.95;1.40;;;;;;;23.98;40.58;93784.41;4992524;28;20025;-76
2021/08/08 00:33:53;;;;;;;1.85;1.20;;;;;;;24.35;41.04;93847.22;4984748;28;20042;-76
2021/08/08 00:36:20;;;;;;;2.40;1.15;;;;;;;24.48;41.14;93861.97;4982726;28;20952;-77
2021/08/08 00:38:45;;;;;;;1.50;1.20;;;;;;;24.45;41.79;93868.13;4984227;28;20037;-76
2021/08/08 00:41:11;;;;;;;3.05;1.30;;;;;;;24.42;42.13;93870.81;4983325;28;20091;-77
2021/08/08 00:43:38;;;;;;;2.72;1.60;;;;;;;24.46;41.87;93858.88;4984693;28;20022;-76
2021/08/08 00:46:03;;;;;;;2.05;1.33;;;;;;;24.43;42.10;93865.06;4985519;28;20037;-77
2021/08/08 00:48:29;;;;;;;3.88;1.70;;;;;;;24.37;41.51;93849.56;4985842;28;20034;-76
2021/08/08 00:50:54;;;;;;;4.40;1.67;;;;;;;24.40;41.46;93868.47;4984900;28;20539;-76
2021/08/08 00:53:20;;;;;;;1.48;1.10;;;;;;;24.35;42.10;93873.44;4986101;28;20053;-76
2021/08/08 00:55:45;;;;;;;2.45;1.20;;;;;;;24.36;41.27;93875.78;4986492;28;20064;-78
2021/08/08 00:58:11;;;;;;;1.77;1.40;;;;;;;24.34;41.33;93883.47;4983684;28;20023;-76
2021/08/08 01:00:38;;;;;;;1.65;1.10;;;;;;;23.91;41.41;93817.50;4986516;28;20116;-76
2021/08/08 01:03:07;;;;;;;3.13;1.45;;;;;;;24.13;39.95;93840.84;4984964;28;20034;-76
2021/08/08 01:05:37;;;;;;;1.40;1.20;;;;;;;24.38;39.89;93888.94;4986028;28;20034;-77
2021/08/08 01:08:05;;;;;;;3.75;1.55;;;;;;;24.43;40.02;93885.88;4984706;28;20049;-78
2021/08/08 01:10:35;;;;;;;1.55;1.20;;;;;;;24.46;39.75;93885.13;4982692;28;20030;-76
2021/08/08 01:13:02;;;;;;;2.17;1.33;;;;;;;24.41;39.79;93883.53;4986221;28;20034;-76
2021/08/08 01:15:28;;;;;;;2.45;1.35;;;;;;;24.40;40.36;93882.00;4985178;28;20330;-77
2021/08/08 01:17:54;;;;;;;3.03;1.23;;;;;;;24.44;40.83;93888.19;4982443;28;20488;-77
2021/08/08 01:20:21;;;;;;;1.23;1.10;;;;;;;24.11;40.82;93858.56;4982246;28;20077;-77
2021/08/08 01:22:56;;;;;;;2.33;1.83;;;;;;;24.44;40.40;93893.59;4984911;28;20022;-76
2021/08/08 01:25:23;;;;;;;3.72;1.77;;;;;;;24.55;40.10;93889.06;4986534;28;20030;-77
2021/08/08 01:27:51;;;;;;;2.20;1.35;;;;;;;24.53;40.49;93891.34;4984148;28;20121;-76
2021/08/08 01:30:18;;;;;;;2.55;1.65;;;;;;;24.56;40.45;93898.72;4985570;28;20038;-78
2021/08/08 01:32:44;;;;;;;6.47;1.75;;;;;;;24.46;40.77;93896.72;4986785;28;20129;-76
2021/08/08 01:35:10;;;;;;;2.05;1.52;;;;;;;24.40;41.23;93900.13;4988031;28;20042;-77
2021/08/08 01:37:36;;;;;;;2.45;1.20;;;;;;;24.40;40.42;93897.41;4987985;28;20030;-77
2021/08/08 01:40:09;;;;;;;5.72;1.73;;;;;;;24.39;40.86;93899.34;4982708;28;20630;-77
2021/08/08 01:42:38;;;;;;;1.58;1.08;;;;;;;24.48;40.80;93902.50;4989632;28;20077;-76
2021/08/08 01:45:05;;;;;;;2.58;1.50;;;;;;;24.49;40.18;93905.97;4987953;28;20084;-77
2021/08/08 01:47:36;;;;;;;3.08;1.58;;;;;;;24.37;40.21;93880.03;4987624;28;20137;-76
2021/08/08 01:50:02;;;;;;;3.65;1.42;;;;;;;24.56;40.09;93906.06;4989340;28;20091;-77
2021/08/08 01:52:28;;;;;;;2.97;1.40;;;;;;;24.52;39.72;93895.22;4988845;28;20037;-77
2021/08/08 01:54:54;;;;;;;2.20;1.27;;;;;;;24.45;39.34;93897.06;4990258;28;20035;-76
2021/08/08 01:57:20;;;;;;;1.45;1.20;;;;;;;24.35;38.93;93895.06;4990666;28;20049;-76
2021/08/08 01:59:46;;;;;;;1.13;1.00;;;;;;;24.32;39.32;93891.19;4991139;28;20030;-77
2021/08/08 02:02:13;;;;;;;1.15;0.93;;;;;;;24.30;39.35;93888.06;4987867;28;20046;-76
2021/08/08 02:04:40;;;;;;;1.67;1.00;;;;;;;24.24;39.61;93897.66;4993990;28;20449;-76
2021/08/08 02:07:09;;;;;;;1.48;1.15;;;;;;;23.93;40.06;93853.00;4989238;28;20120;-76
2021/08/08 02:09:35;;;;;;;2.05;1.00;;;;;;;24.00;39.85;93852.25;4986015;28;20855;-76
2021/08/08 02:12:00;;;;;;;1.10;0.95;;;;;;;24.11;39.65;93897.13;4987992;28;20398;-76
2021/08/08 02:14:26;;;;;;;3.08;1.17;;;;;;;24.17;39.55;93897.59;4988054;28;20417;-77
2021/08/08 02:16:51;;;;;;;3.38;1.00;;;;;;;23.89;39.19;93856.81;4986867;28;20045;-77
2021/08/08 02:19:17;;;;;;;3.53;1.00;;;;;;;24.17;39.37;93903.00;4987850;28;20029;-76
2021/08/08 02:21:42;;;;;;;1.63;1.30;;;;;;;23.81;39.26;93872.13;4978765;28;20041;-76
2021/08/08 02:24:08;;;;;;;2.83;0.90;;;;;;;24.13;39.10;93905.66;4988682;28;20038;-77
2021/08/08 02:26:33;;;;;;;1.45;1.00;;;;;;;24.05;39.37;93887.03;4986789;28;20109;-77
2021/08/08 02:28:58;;;;;;;1.33;1.10;;;;;;;24.12;39.54;93903.31;4985439;28;20084;-76
2021/08/08 02:31:24;;;;;;;4.32;1.00;;;;;;;24.06;39.94;93904.78;4989659;28;20027;-76
2021/08/08 02:33:49;;;;;;;1.45;1.20;;;;;;;24.01;39.70;93903.19;4989280;28;20045;-76
2021/08/08 02:36:14;;;;;;;1.23;1.00;;;;;;;24.02;40.00;93912.06;4987004;28;20043;-76
2021/08/08 02:38:40;;;;;;;2.63;1.23;;;;;;;24.01;39.86;93910.50;4983640;28;20049;-76
2021/08/08 02:41:08;;;;;;;2.22;1.20;;;;;;;24.11;39.91;93909.84;4989052;28;20822;-76
2021/08/08 02:43:33;;;;;;;1.25;1.00;;;;;;;23.82;39.98;93875.59;4986835;28;20031;-77
2021/08/08 02:45:59;;;;;;;4.75;1.50;;;;;;;24.03;40.17;93919.03;4985230;28;20034;-76
2021/08/08 02:48:24;;;;;;;1.15;0.85;;;;;;;24.00;39.84;93911.66;4988340;28;20046;-77
2021/08/08 02:50:49;;;;;;;4.35;1.20;;;;;;;24.01;39.95;93918.59;4986448;28;20038;-76
2021/08/08 02:53:15;;;;;;;1.25;1.15;;;;;;;24.03;39.59;93916.31;4987581;28;20065;-76
2021/08/08 02:55:40;;;;;;;1.92;1.20;;;;;;;24.08;39.59;93929.50;4987144;28;20026;-76
2021/08/08 02:58:06;;;;;;;1.88;1.00;;;;;;;24.11;39.57;93920.66;4986131;28;20030;-76
2021/08/08 03:00:31;;;;;;;2.28;1.10;;;;;;;24.05;39.58;93928.31;4992161;28;20588;-76
2021/08/08 03:02:56;;;;;;;1.70;1.13;;;;;;;24.11;39.36;93926.03;4982234;28;20638;-76
2021/08/08 03:05:22;;;;;;;1.33;1.08;;;;;;;24.05;39.27;93925.59;4987129;28;20081;-76
2021/08/08 03:07:49;;;;;;;1.20;1.10;;;;;;;24.12;39.29;93930.31;4986568;28;20037;-76
2021/08/08 03:10:14;;;;;;;1.23;1.02;;;;;;;24.09;39.59;93931.06;4985690;28;20037;-76
2021/08/08 03:12:40;;;;;;;2.20;1.10;;;;;;;23.98;39.80;93930.94;4987716;28;20413;-76
2021/08/08 03:15:06;;;;;;;2.08;1.25;;;;;;;24.00;39.85;93944.03;4987527;28;20950;-76
2021/08/08 03:17:31;;;;;;;1.45;1.10;;;;;;;23.77;39.62;93913.72;4985283;28;20038;-76
2021/08/08 03:19:57;;;;;;;1.13;0.98;;;;;;;23.72;40.01;93902.13;4985928;28;20578;-76
2021/08/08 03:22:22;;;;;;;2.20;1.30;;;;;;;23.91;40.50;93938.16;4988324;28;20030;-77
2021/08/08 03:24:48;;;;;;;1.40;1.30;;;;;;;23.82;40.52;93938.47;4985936;28;20030;-76
2021/08/08 03:27:13;;;;;;;2.25;1.35;;;;;;;23.88;40.45;93945.09;4988087;28;20342;-76
2021/08/08 03:29:39;;;;;;;1.50;1.30;;;;;;;23.91;40.39;93940.88;4985301;28;20661;-76
2021/08/08 03:32:04;;;;;;;1.33;1.05;;;;;;;23.86;40.58;93938.50;4987239;28;20185;-77
2021/08/08 03:34:30;;;;;;;4.68;1.23;;;;;;;23.88;40.40;93942.38;4984503;28;20113;-76
2021/08/08 03:36:56;;;;;;;8.38;1.35;;;;;;;23.82;40.94;93937.69;4986820;28;20033;-76
2021/08/08 03:39:25;;;;;;;1.55;0.95;;;;;;;23.70;40.89;93936.78;4987614;28;20034;-77
2021/08/08 03:41:51;;;;;;;1.48;1.05;;;;;;;23.86;40.83;93935.78;4985204;28;20590;-77
2021/08/08 03:44:16;;;;;;;2.10;0.90;;;;;;;23.82;40.87;93943.06;4987100;28;20469;-77
2021/08/08 03:46:41;;;;;;;2.08;1.20;;;;;;;23.82;41.03;93951.16;4985777;28;20133;-77
2021/08/08 03:49:09;;;;;;;3.85;1.17;;;;;;;23.61;41.73;93928.19;4985725;28;20026;-77
2021/08/08 03:51:35;;;;;;;1.30;1.20;;;;;;;23.50;41.19;93894.16;4983972;28;20461;-76
2021/08/08 03:54:00;;;;;;;3.97;1.30;;;;;;;23.81;40.98;93941.50;4987249;28;20042;-76
2021/08/08 03:56:26;;;;;;;2.38;1.10;;;;;;;23.75;41.49;93947.22;4986642;28;20034;-77
2021/08/08 03:58:51;;;;;;;3.17;1.30;;;;;;;23.74;41.52;93932.22;4986618;28;20478;-77
2021/08/08 04:01:16;;;;;;;2.67;1.20;;;;;;;23.78;41.54;93948.44;4987873;28;20024;-77
2021/08/08 04:03:42;;;;;;;3.80;1.67;;;;;;;23.77;42.01;93946.88;4978886;28;20049;-77
2021/08/08 04:06:07;;;;;;;1.63;1.17;;;;;;;23.89;41.68;93953.97;4982724;28;20193;-77
2021/08/08 04:08:32;;;;;;;1.48;1.13;;;;;;;23.93;42.55;93962.88;4984996;28;20042;-78
2021/08/08 04:10:58;;;;;;;3.38;1.20;;;;;;;23.72;42.74;93929.09;4984264;28;20104;-77
2021/08/08 04:13:23;;;;;;;3.75;1.38;;;;;;;23.96;43.42;93959.44;4987433;28;20196;-76
2021/08/08 04:15:49;;;;;;;4.22;1.38;;;;;;;24.07;43.21;93971.13;4985857;28;20034;-77
2021/08/08 04:18:14;;;;;;;2.28;1.38;;;;;;;24.19;43.18;93972.84;4987116;28;20763;-76
2021/08/08 04:20:40;;;;;;;2.03;1.40;;;;;;;24.16;42.44;93966.22;4984219;28;20052;-77
2021/08/08 04:23:07;;;;;;;2.28;1.60;;;;;;;24.24;43.77;93975.22;4983606;28;20074;-76
2021/08/08 04:25:33;;;;;;;2.40;1.52;;;;;;;24.21;42.35;93975.94;4988240;28;20097;-77
2021/08/08 04:27:59;;;;;;;2.45;1.90;;;;;;;24.32;42.18;93974.91;4985249;28;20104;-77
2021/08/08 04:30:24;;;;;;;4.57;2.22;;;;;;;24.40;42.18;93978.44;4985554;28;20505;-76
2021/08/08 04:32:50;;;;;;;5.32;2.30;;;;;;;24.50;42.15;93983.19;4983281;28;20062;-76
2021/08/08 04:35:15;;;;;;;3.97;2.03;;;;;;;24.62;41.79;93979.44;4994321;28;20049;-76
2021/08/08 04:37:41;;;;;;;4.97;1.80;;;;;;;24.79;41.51;93978.81;4983286;28;20026;-77
2021/08/08 04:40:07;;;;;;;2.70;2.03;;;;;;;24.87;40.08;93978.53;4992928;28;20040;-77
2021/08/08 04:42:36;;;;;;;2.50;1.88;;;;;;;24.70;40.28;93964.84;4982952;28;20037;-77
2021/08/08 04:45:02;;;;;;;5.40;2.28;;;;;;;24.95;39.59;93973.97;4988083;28;20126;-76
2021/08/08 04:47:27;;;;;;;3.35;1.90;;;;;;;24.95;39.78;93973.97;4984274;28;20088;-77
2021/08/08 04:49:53;;;;;;;3.83;1.85;;;;;;;25.00;39.86;93973.63;4987495;28;20019;-77
2021/08/08 04:52:18;;;;;;;5.05;2.40;;;;;;;25.07;39.53;93968.25;4986384;28;20325;-76
2021/08/08 04:54:44;;;;;;;3.95;2.10;;;;;;;25.18;39.55;93974.50;4987321;28;20072;-76
2021/08/08 04:57:09;;;;;;;2.33;1.88;;;;;;;25.18;39.57;93974.50;4984828;28;20165;-76
2021/08/08 04:59:35;;;;;;;4.82;2.17;;;;;;;25.27;39.29;93961.44;4987914;28;20037;-77
2021/08/08 05:02:00;;;;;;;4.00;2.22;;;;;;;25.30;39.31;93968.81;5003567;28;20044;-77
2021/08/08 05:04:25;;;;;;;3.00;2.40;;;;;;;25.41;39.61;93975.03;4986331;28;20030;-76
2021/08/08 05:06:51;;;;;;;6.15;1.77;;;;;;;25.44;39.56;93974.31;4992717;28;20042;-78
2021/08/08 05:09:17;;;;;;;6.57;2.65;;;;;;;25.48;38.83;93970.84;4988207;28;20045;-77
2021/08/08 05:11:42;;;;;;;4.45;1.80;;;;;;;25.58;38.44;93980.97;4982996;28;20065;-77
2021/08/08 05:14:07;;;;;;;3.33;2.50;;;;;;;25.41;39.73;93969.63;4986782;28;20034;-76
2021/08/08 05:16:33;;;;;;;6.32;2.63;;;;;;;25.52;39.42;93985.16;4989998;28;20064;-78
2021/08/08 05:18:58;;;;;;;3.53;1.80;;;;;;;25.65;39.38;93991.84;4986718;28;20045;-77
2021/08/08 05:21:23;;;;;;;4.68;1.95;;;;;;;25.64;39.26;93991.06;4988115;28;20524;-76
2021/08/08 05:23:49;;;;;;;4.97;1.92;;;;;;;25.50;39.84;93958.50;4989619;28;20046;-78
2021/08/08 05:26:14;;;;;;;2.78;1.88;;;;;;;25.51;39.35;93951.91;4987981;28;21014;-77
2021/08/08 05:28:42;;;;;;;8.40;2.88;;;;;;;25.80;39.53;93982.66;4991820;28;20672;-77
2021/08/08 05:31:07;;;;;;;4.70;2.35;;;;;;;25.76;39.05;93998.06;4989209;28;20029;-77
2021/08/08 05:33:33;;;;;;;5.15;2.20;;;;;;;25.90;39.47;93995.47;4987288;28;20411;-79
2021/08/08 05:35:58;;;;;;;4.13;2.30;;;;;;;26.03;39.18;93996.66;4987853;28;20038;-76
2021/08/08 05:38:23;;;;;;;4.35;2.25;;;;;;;25.94;39.00;94003.59;4992661;28;20416;-77
2021/08/08 05:40:49;;;;;;;4.10;1.83;;;;;;;25.90;39.08;93998.16;4987780;28;20023;-79
2021/08/08 05:43:15;;;;;;;2.88;1.75;;;;;;;25.94;38.44;94004.38;4990834;28;20925;-77
2021/08/08 05:45:42;;;;;;;3.10;2.13;;;;;;;26.25;38.25;94001.03;4990711;28;20085;-76
2021/08/08 05:48:07;;;;;;;3.85;2.05;;;;;;;26.43;36.68;93998.38;4988002;28;20227;-77
2021/08/08 05:50:32;;;;;;;2.25;1.65;;;;;;;26.43;37.33;94003.03;4988385;28;20045;-78
2021/08/08 05:53:02;;;;;;;2.25;1.55;;;;;;;26.39;36.95;94002.25;4986751;28;20034;-78
2021/08/08 05:55:30;;;;;;;4.82;1.95;;;;;;;26.28;37.31;93994.84;4989035;28;20107;-79
2021/08/08 05:57:55;;;;;;;4.10;2.00;;;;;;;26.36;37.55;93997.56;4986064;28;20034;-77
2021/08/08 06:00:20;;;;;;;2.60;1.83;;;;;;;26.45;37.83;94000.69;4987367;28;20069;-77
2021/08/08 06:02:46;;;;;;;4.40;2.08;;;;;;;26.56;37.86;94012.34;4988075;28;20060;-76
2021/08/08 06:05:11;;;;;;;3.42;2.00;;;;;;;26.64;38.37;94013.88;4987632;28;20104;-76
2021/08/08 06:07:37;;;;;;;4.25;2.20;;;;;;;26.59;38.18;94006.91;4987621;28;20052;-79
2021/08/08 06:10:03;;;;;;;3.90;2.55;;;;;;;26.67;37.65;93988.75;4990775;28;20032;-77
2021/08/08 06:12:29;;;;;;;7.72;2.15;;;;;;;26.81;37.19;94001.53;4987152;28;20399;-76
2021/08/08 06:14:54;;;;;;;4.45;2.58;;;;;;;26.91;37.51;94003.50;4988429;28;20034;-77
2021/08/08 06:17:20;;;;;;;4.13;2.53;;;;;;;26.91;37.52;94000.81;4987610;28;20068;-77
2021/08/08 06:19:45;;;;;;;4.75;1.88;;;;;;;26.93;37.50;93987.59;4985482;28;20546;-77
2021/08/08 06:22:13;;;;;;;4.68;2.10;;;;;;;27.12;37.31;93990.72;4991188;28;20453;-77
2021/08/08 06:24:39;;;;;;;6.15;2.50;;;;;;;26.90;37.10;93956.63;4982533;28;20480;-77
2021/08/08 06:27:04;;;;;;;4.22;2.05;;;;;;;27.17;36.73;93999.66;4989233;28;20046;-77
2021/08/08 06:29:30;;;;;;;3.63;2.10;;;;;;;26.98;37.60;93952.75;4984444;28;20034;-76
2021/08/08 06:31:55;;;;;;;3.47;2.03;;;;;;;27.34;36.70;93991.47;4988627;28;20030;-77
2021/08/08 06:34:20;;;;;;;7.68;2.10;;;;;;;27.14;36.47;94004.69;4989468;28;20022;-77
2021/08/08 06:36:46;;;;;;;3.40;2.00;;;;;;;27.35;36.84;93994.97;4988600;28;20148;-77
2021/08/08 06:39:11;;;;;;;4.53;2.38;;;;;;;27.45;36.09;93996.91;4989482;28;20047;-77
2021/08/08 06:41:37;;;;;;;6.82;1.90;;;;;;;27.71;35.40;94009.31;4985033;28;20030;-76
2021/08/08 06:44:02;;;;;;;2.42;2.05;;;;;;;27.83;35.53;94011.59;4988635;28;20125;-76
2021/08/08 06:46:28;;;;;;;4.35;1.77;;;;;;;27.88;35.86;94009.25;4988487;28;20036;-77
2021/08/08 06:48:53;;;;;;;3.28;1.83;;;;;;;27.87;35.45;94002.25;4987240;28;20079;-77
2021/08/08 06:51:19;;;;;;;3.10;1.80;;;;;;;28.08;35.13;94006.06;4986916;28;20409;-76
2021/08/08 06:53:44;;;;;;;3.28;2.00;;;;;;;27.90;34.93;94004.22;4985476;28;20497;-76
2021/08/08 06:56:09;;;;;;;5.30;2.35;;;;;;;27.72;34.74;93967.38;4985062;28;20405;-77
2021/08/08 06:59:18;;;;;;;3.58;2.30;;;;;;;28.10;35.14;94003.75;4986524;28;20022;-77
2021/08/08 07:01:44;;;;;;;4.03;1.95;;;;;;;28.12;34.02;93996.00;4990529;28;20053;-77
2021/08/08 07:04:09;;;;;;;2.72;2.20;;;;;;;28.32;34.16;94002.50;4984128;28;20280;-77
2021/08/08 07:06:35;;;;;;;6.05;2.47;;;;;;;28.11;34.53;93972.66;4987698;28;20416;-77
2021/08/08 07:09:01;;;;;;;3.92;2.30;;;;;;;27.99;34.46;93963.03;4985570;28;20061;-77
2021/08/08 07:11:27;;;;;;;9.93;3.40;;;;;;;28.05;34.97;94004.94;4986010;28;20044;-77
2021/08/08 07:13:52;;;;;;;2.47;2.08;;;;;;;28.26;35.27;94006.78;4984686;28;20030;-76
2021/08/08 07:16:18;;;;;;;3.75;2.63;;;;;;;28.10;34.36;93998.31;4987805;28;20061;-77
2021/08/08 07:18:43;;;;;;;4.95;2.03;;;;;;;28.49;35.41;94012.53;4986164;28;20413;-76
2021/08/08 07:21:10;;;;;;;3.72;2.58;;;;;;;28.60;33.79;94012.44;4985822;28;20027;-77
2021/08/08 07:23:35;;;;;;;2.80;1.98;;;;;;;28.58;33.61;93974.03;4988909;28;20054;-76
2021/08/08 07:26:00;;;;;;;5.10;1.80;;;;;;;28.84;33.56;94009.59;4983965;28;20112;-76
2021/08/08 07:28:26;;;;;;;6.90;2.40;;;;;;;28.61;33.62;94006.63;4986055;28;20018;-79
2021/08/08 07:30:52;;;;;;;4.32;1.70;;;;;;;28.71;33.45;94005.81;4985536;28;20232;-77
2021/08/08 07:33:17;;;;;;;4.50;2.08;;;;;;;28.78;33.25;94003.03;4986571;28;20103;-77
2021/08/08 07:35:43;;;;;;;2.20;1.85;;;;;;;28.86;32.92;94009.22;4985921;28;20038;-78
2021/08/08 07:38:09;;;;;;;2.85;1.98;;;;;;;28.93;32.67;94011.13;4989985;28;20046;-78
2021/08/08 07:40:35;;;;;;;3.35;1.52;;;;;;;28.96;32.52;93997.50;4987010;28;20041;-78
2021/08/08 07:43:00;;;;;;;2.60;2.10;;;;;;;28.68;32.97;93959.59;4986967;28;20591;-77
2021/08/08 07:45:26;;;;;;;3.15;2.42;;;;;;;28.91;32.76;93997.13;4981360;28;20049;-76
2021/08/08 07:47:51;;;;;;;3.17;1.83;;;;;;;28.99;31.85;93990.47;4984748;28;20041;-77
2021/08/08 07:50:16;;;;;;;2.58;1.27;;;;;;;29.21;33.22;93994.56;4986481;28;20776;-76
2021/08/08 07:52:42;;;;;;;3.08;1.80;;;;;;;29.32;32.65;93995.28;4984906;28;20109;-77
2021/08/08 07:55:08;;;;;;;6.28;1.90;;;;;;;29.24;31.99;93996.47;4985720;28;20084;-76
2021/08/08 07:57:34;;;;;;;3.63;2.20;;;;;;;29.44;32.97;93991.28;4983382;28;20387;-76
2021/08/08 07:59:59;;;;;;;3.08;2.25;;;;;;;29.59;32.32;93996.19;4984516;28;20398;-76
2021/08/08 08:02:25;;;;;;;2.30;1.30;;;;;;;29.75;31.82;93994.88;4984086;28;20364;-76
2021/08/08 08:04:50;;;;;;;1.95;1.45;;;;;;;29.83;31.67;93996.34;4984811;28;20049;-77
2021/08/08 08:07:16;;;;;;;2.72;1.83;;;;;;;29.99;31.60;93999.31;4985670;28;20072;-77
2021/08/08 08:09:42;;;;;;;3.05;1.92;;;;;;;30.20;31.94;94001.00;4983938;28;20049;-78
2021/08/08 08:12:07;;;;;;;3.85;1.50;;;;;;;29.98;31.00;93974.00;4986558;28;20042;-76
2021/08/08 08:14:41;;;;;;;2.08;1.88;;;;;;;29.94;31.23;93967.06;4985462;28;20097;-78
2021/08/08 08:17:06;;;;;;;3.58;1.80;;;;;;;30.00;31.72;93979.06;4987215;28;20042;-76
2021/08/08 08:19:32;;;;;;;8.25;1.63;;;;;;;30.03;31.07;93994.59;4984379;28;20040;-76
2021/08/08 08:21:57;;;;;;;1.90;1.77;;;;;;;29.83;31.75;93996.34;4986263;28;20057;-76
2021/08/08 08:24:23;;;;;;;4.18;1.95;;;;;;;29.87;31.58;93999.78;4987247;28;20405;-77
2021/08/08 08:26:48;;;;;;;2.13;1.90;;;;;;;29.98;31.61;93997.75;4970420;28;20081;-77
2021/08/08 08:29:14;;;;;;;2.67;2.08;;;;;;;30.12;31.57;93997.59;4983518;28;20054;-78
2021/08/08 08:31:40;;;;;;;2.20;1.73;;;;;;;30.28;31.48;93992.34;4987234;28;20021;-77
2021/08/08 08:34:06;;;;;;;4.78;1.90;;;;;;;30.43;31.12;93992.91;4985138;28;20765;-76
2021/08/08 08:36:32;;;;;;;8.05;1.90;;;;;;;30.25;31.40;93952.25;4986394;28;20077;-77
2021/08/08 08:38:57;;;;;;;3.30;1.73;;;;;;;30.50;31.36;93993.63;4983504;28;20045;-77
2021/08/08 08:41:27;;;;;;;2.15;1.95;;;;;;;30.61;31.23;93998.16;4987288;28;20126;-77
2021/08/08 08:43:55;;;;;;;3.38;1.80;;;;;;;30.52;30.36;93988.53;4986497;28;20400;-75
2021/08/08 08:46:22;;;;;;;5.30;1.80;;;;;;;30.54;30.95;93994.34;4985359;28;20029;-76
2021/08/08 08:48:48;;;;;;;2.70;1.80;;;;;;;30.45;30.40;93994.03;4987385;28;20290;-78
2021/08/08 08:51:16;;;;;;;3.55;1.92;;;;;;;30.31;30.36;93975.16;4988292;28;20041;-76
2021/08/08 08:53:47;;;;;;;2.38;2.00;;;;;;;30.22;30.75;93982.28;4991323;28;20065;-77
2021/08/08 08:56:14;;;;;;;3.15;2.15;;;;;;;30.16;30.95;93981.97;4987329;28;20049;-77
2021/08/08 08:58:41;;;;;;;5.68;2.30;;;;;;;30.30;30.85;93981.03;4988296;28;20037;-76
2021/08/08 09:01:06;;;;;;;3.13;1.83;;;;;;;30.34;30.93;93982.53;4992387;28;20337;-77
2021/08/08 09:03:31;;;;;;;6.43;2.20;;;;;;;30.59;30.92;93982.22;4993324;28;20046;-77
2021/08/08 09:05:57;;;;;;;5.72;1.95;;;;;;;30.39;30.83;93979.34;4990955;28;20061;-77
2021/08/08 09:08:22;;;;;;;2.40;1.75;;;;;;;30.20;30.69;93950.00;4993346;28;20077;-76
2021/08/08 09:11:06;;;;;;;4.07;2.17;;;;;;;30.53;30.68;93989.31;4989015;28;20471;-77
2021/08/08 09:13:48;;;;;;;3.00;2.13;;;;;;;30.51;30.57;93929.72;4998057;28;20057;-77
2021/08/08 09:16:14;;;;;;;8.00;2.47;;;;;;;30.51;31.42;93987.00;4991937;28;20750;-76
2021/08/08 09:18:51;;;;;;;6.28;2.20;;;;;;;30.59;31.21;93982.22;4989789;28;20208;-76
2021/08/08 09:21:16;;;;;;;4.95;1.80;;;;;;;30.67;31.46;93985.59;4988824;28;20146;-76
2021/08/08 09:23:42;;;;;;;2.92;1.80;;;;;;;30.81;30.85;93982.69;4988422;28;20575;-77
2021/08/08 09:26:07;;;;;;;12.25;2.45;;;;;;;30.64;30.96;93983.72;4989697;28;20390;-77
2021/08/08 09:28:33;;;;;;;5.85;2.50;;;;;;;30.49;30.34;93983.91;4991938;28;20072;-79
2021/08/08 09:30:59;;;;;;;3.83;2.40;;;;;;;30.72;31.13;93990.59;4988498;28;20635;-76
2021/08/08 09:33:25;;;;;;;2.95;1.70;;;;;;;30.89;31.43;93984.09;4990215;28;20033;-76
2021/08/08 09:35:55;;;;;;;4.28;2.20;;;;;;;31.02;30.85;93982.38;4990808;28;20042;-77
2021/08/08 09:38:22;;;;;;;4.68;2.00;;;;;;;31.20;30.00;93977.41;4991370;28;20053;-77
2021/08/08 09:40:59;;;;;;;2.00;1.77;;;;;;;31.26;30.30;93972.25;4986738;28;20397;-76
2021/08/08 09:43:27;;;;;;;3.85;2.03;;;;;;;31.14;29.54;93965.41;4992148;28;20041;-76
2021/08/08 09:45:53;;;;;;;5.30;3.00;;;;;;;31.15;30.06;93975.16;4993307;28;20039;-77
2021/08/08 09:48:18;;;;;;;5.82;2.42;;;;;;;31.30;30.31;93964.75;4990857;28;20034;-77
2021/08/08 09:50:45;;;;;;;4.10;2.50;;;;;;;31.39;30.21;93963.03;4990527;28;20769;-76
2021/08/08 09:53:19;;;;;;;3.83;2.13;;;;;;;31.45;29.41;93968.03;5006912;28;20038;-77
2021/08/08 09:55:45;;;;;;;4.35;2.35;;;;;;;31.45;30.65;93971.53;4991602;28;20028;-76
2021/08/08 09:58:10;;;;;;;4.75;2.13;;;;;;;31.63;29.18;93972.00;4991990;28;20038;-77
2021/08/08 10:00:38;;;;;;;2.60;2.10;;;;;;;31.63;29.24;93965.75;4988036;28;20042;-77
2021/08/08 10:03:06;;;;;;;2.42;2.03;;;;;;;31.78;29.77;93973.28;4987139;28;20275;-77
2021/08/08 10:05:39;;;;;;;14.63;5.57;;;;;;;31.88;29.19;93966.06;4989376;28;20042;-77
2021/08/08 10:08:15;;;;;;;6.55;3.20;;;;;;;31.63;28.77;93924.78;4987819;28;20501;-78
2021/08/08 10:10:43;;;;;;;3.00;1.98;;;;;;;31.90;28.16;93969.16;4987813;28;20025;-76
2021/08/08 10:13:31;;;;;;;11.40;4.07;;;;;;;31.89;28.54;93967.63;4986767;28;20103;-79
2021/08/08 10:15:59;;;;;;;3.30;2.15;;;;;;;31.85;28.36;93964.19;4988384;28;20034;-76
2021/08/08 10:18:29;;;;;;;5.28;2.42;;;;;;;32.04;28.58;93957.97;4987037;28;20574;-76
2021/08/08 10:20:54;;;;;;;2.97;2.10;;;;;;;32.13;29.76;93949.97;4987754;28;20146;-76
2021/08/08 10:23:21;;;;;;;3.70;2.40;;;;;;;32.12;29.08;93953.91;4988967;28;20405;-77
2021/08/08 10:25:49;;;;;;;7.38;2.40;;;;;;;31.85;28.58;93920.47;4991739;28;20046;-76
2021/08/08 10:28:15;;;;;;;4.60;2.20;;;;;;;32.01;27.50;93953.31;4987003;28;20046;-77
2021/08/08 10:30:41;;;;;;;6.20;2.22;;;;;;;31.93;27.55;93957.38;4988117;28;20045;-77
2021/08/08 10:33:08;;;;;;;3.15;2.63;;;;;;;32.01;27.86;93947.09;4989731;28;20042;-77
2021/08/08 10:35:45;;;;;;;2.45;1.88;;;;;;;32.25;28.95;93946.59;4987788;28;20054;-78
2021/08/08 10:38:12;;;;;;;6.53;1.85;;;;;;;32.35;27.63;93939.38;4990347;28;20049;-78
2021/08/08 10:40:40;;;;;;;3.60;2.38;;;;;;;32.16;27.75;93942.88;4985708;28;20041;-77
2021/08/08 10:43:06;;;;;;;2.75;1.98;;;;;;;32.22;27.49;93931.03;4988403;28;20030;-77
2021/08/08 10:45:37;;;;;;;3.28;1.80;;;;;;;32.27;27.01;93942.66;4985494;28;20042;-77
2021/08/08 10:48:04;;;;;;;3.30;2.03;;;;;;;32.53;25.83;93945.22;4987488;28;20042;-76
2021/08/08 10:50:44;;;;;;;3.53;2.15;;;;;;;32.68;26.78;93937.50;4988423;28;20034;-76
2021/08/08 10:53:24;;;;;;;3.40;2.10;;;;;;;32.69;26.33;93938.28;4994372;28;20062;-77
2021/08/08 10:56:05;;;;;;;2.97;2.13;;;;;;;32.81;25.93;93932.13;4986077;28;20069;-76
2021/08/08 10:58:39;;;;;;;5.53;1.70;;;;;;;32.74;24.78;93900.22;4986735;28;20021;-76
2021/08/08 11:01:22;;;;;;;2.88;1.80;;;;;;;32.93;25.20;93940.44;4985801;28;20121;-76
2021/08/08 11:03:56;;;;;;;4.63;2.30;;;;;;;32.62;25.28;93936.44;4987629;28;20411;-76
2021/08/08 11:06:26;;;;;;;3.05;2.28;;;;;;;32.91;25.04;93942.03;4986642;28;20537;-77
2021/08/08 11:08:53;;;;;;;4.50;2.22;;;;;;;33.05;25.26;93937.00;4986796;28;20030;-77
2021/08/08 11:11:25;;;;;;;3.22;2.45;;;;;;;32.87;26.17;93933.16;4986544;28;20045;-77
2021/08/08 11:13:52;;;;;;;6.70;2.22;;;;;;;32.82;25.33;93922.72;4985037;28;20029;-77
2021/08/08 11:16:17;;;;;;;4.22;2.33;;;;;;;32.99;24.92;93937.94;4986916;28;20014;-77
2021/08/08 11:18:56;;;;;;;6.05;2.42;;;;;;;33.01;25.22;93930.84;4986890;28;20508;-77
2021/08/08 11:21:22;;;;;;;4.70;2.38;;;;;;;33.06;24.81;93921.34;4985215;28;20033;-77
2021/08/08 11:24:02;;;;;;;5.78;2.60;;;;;;;33.23;26.31;93920.16;4985151;28;20038;-77
2021/08/08 11:26:30;;;;;;;3.25;1.92;;;;;;;33.39;24.65;93917.38;4987506;28;20037;-78
2021/08/08 11:29:01;;;;;;;2.70;2.13;;;;;;;33.29;24.62;93857.41;4986162;28;20031;-77
2021/08/08 11:31:29;;;;;;;3.63;1.90;;;;;;;33.62;24.25;93912.91;4987849;28;20487;-77
2021/08/08 11:34:00;;;;;;;7.22;2.40;;;;;;;33.81;24.38;93914.75;5002524;28;20034;-77